Time;durP1;ratioP1;P1;durP2;ratioP2;P2;SDS_P1;SDS_P2;PMS_P1;PMS_P2;Temp;Humidity;BMP_temperature;BMP_pressure;BME280_temperature;BME280_humidity;BME280_pressure;Samples;Min_cycle;Max_cycle;Signal;HPM_P1;HPM_P2
2023/01/03 00:01:55;;;;;;;;;22.50;19.50;;;;;9.82;72.04;102035.94;5036385;28;46778;-56
2023/01/03 00:04:21;;;;;;;;;20.75;16.50;;;;;9.79;72.62;102033.53;5034632;28;45465;-57
2023/01/03 00:06:51;;;;;;;;;21.75;20.50;;;;;9.79;72.34;102037.13;5035100;28;45424;-57
2023/01/03 00:09:18;;;;;;;;;20.80;20.40;;;;;9.80;72.47;102044.31;5036336;28;45328;-52
2023/01/03 00:14:30;;;;;;;;;20.60;19.00;;;;;9.72;72.12;102044.34;5034809;28;45319;-55
2023/01/03 00:16:57;;;;;;;;;20.80;19.00;;;;;9.74;72.10;102045.03;5034921;28;45498;-56
2023/01/03 00:19:24;;;;;;;;;19.20;17.40;;;;;9.73;72.27;102037.84;5018611;28;45493;-57
2023/01/03 00:21:50;;;;;;;;;19.60;16.40;;;;;9.62;72.78;102034.41;5035710;28;46866;-58
2023/01/03 00:24:15;;;;;;;;;17.75;17.75;;;;;9.69;72.21;102044.69;5035953;28;45245;-57
2023/01/03 00:26:41;;;;;;;;;20.25;18.50;;;;;9.77;72.49;102041.94;5012532;28;45630;-57
2023/01/03 00:29:07;;;;;;;;;21.00;18.00;;;;;9.77;72.20;102030.97;5034249;28;45309;-58
2023/01/03 00:31:33;;;;;;;;;18.50;14.25;;;;;9.70;72.47;102016.22;5033153;28;46268;-53
2023/01/03 00:33:58;;;;;;;;;19.75;18.75;;;;;9.56;72.37;102002.22;5034149;28;45240;-53
2023/01/03 00:36:24;;;;;;;;;16.50;15.00;;;;;9.71;72.16;102031.69;5036328;28;45282;-52
2023/01/03 00:38:49;;;;;;;;;16.50;16.25;;;;;9.72;72.24;102023.25;5034750;28;45980;-55
2023/01/03 00:41:16;;;;;;;;;19.25;17.75;;;;;9.69;72.98;102040.06;5035929;28;45565;-52
2023/01/03 00:43:44;;;;;;;;;17.00;17.00;;;;;9.68;72.30;102024.66;5049846;28;45436;-55
2023/01/03 00:46:10;;;;;;;;;20.80;16.80;;;;;9.76;71.70;102037.47;5076011;28;45499;-57
2023/01/03 00:48:36;;;;;;;;;22.00;16.80;;;;;9.70;71.85;102025.31;5076293;28;45172;-57
2023/01/03 00:51:13;;;;;;;;;16.00;14.25;;;;;9.68;72.35;102019.19;5075834;28;46211;-57
2023/01/03 00:53:39;;;;;;;;;17.80;16.00;;;;;9.71;71.87;102031.69;5041968;28;45350;-58
2023/01/03 00:56:06;;;;;;;;;17.00;15.00;;;;;9.72;71.34;102033.38;5076112;28;45339;-57
2023/01/03 00:58:32;;;;;;;;;15.80;15.80;;;;;9.69;71.99;102025.50;5074434;28;45504;-58
2023/01/03 01:01:06;;;;;;;;;15.75;14.25;;;;;9.67;72.49;102028.44;5075717;28;45509;-55
2023/01/03 01:03:32;;;;;;;;;16.00;15.40;;;;;9.69;71.81;102025.50;5075432;28;45401;-56
2023/01/03 01:05:57;;;;;;;;;14.60;12.00;;;;;9.68;72.39;102027.41;5056692;28;45550;-57
2023/01/03 01:08:23;;;;;;;;;18.25;15.00;;;;;9.71;71.44;102026.19;5057538;28;45529;-58
2023/01/03 01:11:00;;;;;;;;;14.00;12.25;;;;;9.22;72.20;101945.75;5056817;28;47681;-56
2023/01/03 01:13:30;;;;;;;;;11.80;11.80;;;;;9.60;72.43;102010.94;5074360;28;45322;-52
2023/01/03 01:16:03;;;;;;;;;17.20;12.20;;;;;9.68;71.82;102021.91;5040561;28;45508;-57
2023/01/03 01:18:28;;;;;;;;;10.00;10.00;;;;;9.71;72.21;102028.94;5075931;28;45357;-56
2023/01/03 01:20:54;;;;;;;;;12.25;10.25;;;;;9.55;72.09;102013.38;5075309;28;45668;-54
2023/01/03 01:23:19;;;;;;;;;11.50;9.00;;;;;9.66;71.64;102034.91;5075265;28;45336;-53
2023/01/03 01:25:45;;;;;;;;;11.00;8.75;;;;;9.41;72.44;102004.84;5075755;28;45373;-51
2023/01/03 01:28:10;;;;;;;;;13.00;13.00;;;;;9.56;72.27;102037.84;5075421;28;45345;-55
2023/01/03 01:30:37;;;;;;;;;12.00;9.25;;;;;9.59;72.30;102040.25;5075116;28;45448;-56
2023/01/03 01:33:02;;;;;;;;;12.00;10.20;;;;;9.51;72.33;102040.28;5074919;28;45361;-57
2023/01/03 01:35:28;;;;;;;;;12.25;12.25;;;;;9.51;72.33;102040.28;5075276;28;45351;-57
2023/01/03 01:37:53;;;;;;;;;10.50;10.50;;;;;9.54;72.42;102048.13;5075382;28;45527;-55
2023/01/03 01:40:19;;;;;;;;;12.50;11.75;;;;;9.53;72.43;102048.31;5074718;28;46147;-58
2023/01/03 01:45:28;;;;;;;;;15.40;12.80;;;;;9.58;72.17;102041.28;5075320;28;45568;-58
2023/01/03 01:47:56;;;;;;;;;8.00;7.00;;;;;9.57;72.40;102039.59;5057152;28;45642;-57
2023/01/03 01:50:28;;;;;;;;;9.40;9.00;;;;;9.54;72.42;102030.84;5040170;28;46309;-54
2023/01/03 01:53:03;;;;;;;;;8.20;7.60;;;;;9.56;72.43;102040.59;5056629;28;45450;-57
2023/01/03 01:55:40;;;;;;;;;7.00;7.00;;;;;9.55;72.57;102041.63;5074900;28;45401;-58
2023/01/03 01:58:07;;;;;;;;;13.00;8.40;;;;;9.60;72.10;102049.31;5057489;28;45401;-56
2023/01/03 02:00:32;;;;;;;;;9.40;8.00;;;;;9.34;72.67;102015.63;5073365;28;46278;-57
2023/01/03 02:02:58;;;;;;;;;10.00;9.75;;;;;9.03;72.10;101966.16;5074949;28;45267;-57
2023/01/03 02:05:23;;;;;;;;;7.50;6.25;;;;;9.56;72.62;102056.19;5074710;28;45211;-56
2023/01/03 02:07:50;;;;;;;;;8.25;7.25;;;;;9.53;73.11;102053.78;5075326;28;45658;-56
2023/01/03 02:10:17;;;;;;;;;8.80;7.20;;;;;9.57;72.79;102058.78;5056323;28;45700;-54
2023/01/03 02:13:06;;;;;;;;;8.80;7.00;;;;;9.55;72.63;102052.59;5056233;28;45495;-54
2023/01/03 02:15:43;;;;;;;;;5.20;5.20;;;;;9.50;72.40;102046.75;5043656;28;45278;-54
2023/01/03 02:18:34;;;;;;;;;4.80;3.60;;;;;9.58;72.89;102060.47;5073871;28;45223;-51
2023/01/03 02:21:09;;;;;;;;;13.20;8.60;;;;;9.57;72.18;102057.91;5056410;28;45790;-54
2023/01/03 02:24:11;;;;;;;;;7.40;6.40;;;;;9.59;72.85;102062.19;4937337;28;46033;-56
2023/01/03 02:27:14;;;;;;;;;11.60;6.80;;;;;9.57;72.50;102064.25;5053606;28;45404;-56
2023/01/03 02:30:07;;;;;;;;;5.20;3.80;;;;;9.55;72.55;102066.28;5054609;28;45279;-56
2023/01/03 02:32:42;;;;;;;;;5.60;5.40;;;;;9.55;73.10;102071.78;5038539;28;45397;-52
2023/01/03 02:35:25;;;;;;;;;7.20;3.60;;;;;9.36;72.63;102040.94;5035853;28;45327;-53
2023/01/03 02:38:14;;;;;;;;;4.80;4.80;;;;;9.56;72.84;102070.75;5037635;28;45505;-56
2023/01/03 02:40:49;;;;;;;;;6.00;4.40;;;;;9.29;72.92;102039.94;5019310;28;45353;-56
2023/01/03 02:43:20;;;;;;;;;5.80;3.00;;;;;9.56;73.03;102089.94;5053673;28;45994;-54
2023/01/03 02:46:05;;;;;;;;;4.80;4.80;;;;;9.55;73.60;102076.41;5038819;28;45391;-54
2023/01/03 02:48:56;;;;;;;;;4.80;3.40;;;;;9.57;72.46;102075.22;5056066;28;45443;-55
2023/01/03 02:51:35;;;;;;;;;7.40;3.80;;;;;9.57;72.74;102064.25;5074668;28;45438;-54
2023/01/03 02:54:02;;;;;;;;;6.60;4.80;;;;;9.46;73.25;102064.59;5056385;28;45753;-56
2023/01/03 02:56:36;;;;;;;;;5.40;5.40;;;;;9.45;73.50;102069.22;5039353;28;45742;-54
2023/01/03 02:59:05;;;;;;;;;6.60;5.00;;;;;9.47;72.90;102071.78;5039613;28;45370;-53
2023/01/03 03:01:30;;;;;;;;;4.00;4.00;;;;;9.46;73.67;102072.81;5056145;28;45513;-56
2023/01/03 03:03:56;;;;;;;;;8.00;6.25;;;;;9.44;73.50;102066.66;5055911;28;46194;-53
2023/01/03 03:06:48;;;;;;;;;6.25;3.25;;;;;9.51;73.11;102073.16;5055727;28;45427;-56
2023/01/03 03:09:13;;;;;;;;;6.00;3.40;;;;;9.56;73.57;102084.44;5074203;28;45259;-53
2023/01/03 03:14:29;;;;;;;;;7.60;6.60;;;;;9.55;72.86;102065.44;5044383;28;45376;-54
2023/01/03 03:16:55;;;;;;;;;4.00;4.00;;;;;9.53;72.77;102062.00;5055671;28;45407;-54
2023/01/03 03:25:07;;;;;;;;;6.80;6.60;;;;;9.55;73.29;102070.94;5052730;28;45862;-51
2023/01/03 03:30:18;;;;;;;;;3.20;3.00;;;;;9.43;73.14;102070.41;5073208;28;45413;-53
2023/01/03 03:32:43;;;;;;;;;3.00;3.00;;;;;9.44;73.16;102081.19;5077473;28;45487;-56
2023/01/03 03:35:10;;;;;;;;;2.25;2.25;;;;;9.46;73.73;102076.41;5058935;28;46838;-55
2023/01/03 03:37:35;;;;;;;;;5.60;5.20;;;;;9.48;73.42;102076.22;5076446;28;45487;-54
2023/01/03 03:46:01;;;;;;;;;4.40;3.60;;;;;9.56;73.42;102080.88;5075878;28;45364;-56
2023/01/03 03:49:36;;;;;;;;;6.80;3.00;;;;;9.54;73.14;102081.03;5077385;28;45288;-55
2023/01/03 03:51:24;;;;;;;;;2.40;2.40;;;;;9.52;73.00;102063.91;5061417;28;45295;-51
2023/01/03 03:53:49;;;;;;;;;7.80;5.60;;;;;9.56;72.81;102078.13;5059307;28;46064;-52
2023/01/03 03:56:16;;;;;;;;;2.00;2.00;;;;;9.42;73.16;102049.50;5077079;28;45373;-55
2023/01/03 03:58:43;;;;;;;;;6.80;4.00;;;;;9.63;73.24;102082.75;5058815;28;45388;-51
2023/01/03 04:01:10;;;;;;;;;3.60;3.60;;;;;9.63;73.16;102079.16;5077010;28;45306;-54
2023/01/03 04:03:36;;;;;;;;;1.40;1.40;;;;;9.73;73.20;102078.97;5059165;28;45362;-56
2023/01/03 04:06:05;;;;;;;;;7.00;4.50;;;;;9.72;73.37;102075.34;5075435;28;45421;-54
2023/01/03 04:08:31;;;;;;;;;4.00;4.00;;;;;9.13;73.06;101972.31;5058827;28;45705;-55
2023/01/03 04:11:04;;;;;;;;;4.50;4.50;;;;;9.77;72.98;102077.59;5041946;28;45547;-50
2023/01/03 04:13:36;;;;;;;;;7.40;5.60;;;;;9.79;73.36;102067.28;5044012;28;45383;-55
2023/01/03 04:16:02;;;;;;;;;4.00;4.00;;;;;9.80;73.06;102079.09;5075334;28;46506;-54
2023/01/03 04:18:27;;;;;;;;;4.00;1.80;;;;;9.79;72.90;102072.78;5058276;28;45571;-52
2023/01/03 04:20:53;;;;;;;;;3.75;3.00;;;;;9.77;72.97;102081.19;5077077;28;45381;-52
2023/01/03 04:23:18;;;;;;;;;8.25;5.25;;;;;9.76;72.85;102076.72;5076630;28;45377;-53
2023/01/03 04:25:44;;;;;;;;;6.75;6.00;;;;;9.76;72.56;102084.94;5076705;28;46452;-52
2023/01/03 04:28:09;;;;;;;;;7.00;4.00;;;;;9.77;73.53;102085.81;5075181;28;45353;-54
2023/01/03 04:30:35;;;;;;;;;4.00;4.00;;;;;9.74;73.06;102084.28;5076621;28;45688;-55
2023/01/03 04:33:04;;;;;;;;;6.00;4.00;;;;;9.20;73.21;102008.97;5076804;28;45607;-53
2023/01/03 04:35:33;;;;;;;;;7.60;6.00;;;;;9.56;72.92;102092.66;5058113;28;46600;-56
2023/01/03 04:37:58;;;;;;;;;5.60;3.80;;;;;9.46;73.13;102075.56;5058435;28;45338;-54
2023/01/03 04:40:24;;;;;;;;;6.00;4.50;;;;;9.65;72.83;102104.50;5075577;28;45420;-53
2023/01/03 04:45:34;;;;;;;;;7.60;6.40;;;;;9.60;73.47;102090.44;5054693;28;45386;-51
2023/01/03 04:48:00;;;;;;;;;4.00;3.20;;;;;9.60;73.12;102107.75;5056037;28;45382;-51
2023/01/03 04:50:25;;;;;;;;;7.40;6.60;;;;;9.57;72.91;102108.13;5056034;28;45361;-51
2023/01/03 04:52:51;;;;;;;;;6.00;4.00;;;;;9.38;73.76;102079.16;5056194;28;45659;-50
2023/01/03 04:55:16;;;;;;;;;10.00;6.00;;;;;9.56;73.45;102109.13;5055698;28;45928;-53
2023/01/03 04:57:42;;;;;;;;;7.75;6.75;;;;;9.63;72.49;102123.00;5071341;28;45869;-51
2023/01/03 05:00:08;;;;;;;;;7.00;6.00;;;;;9.58;73.46;102123.53;5054670;28;45443;-55
2023/01/03 05:02:36;;;;;;;;;7.40;7.40;;;;;9.49;73.46;102125.41;5056004;28;45379;-54
2023/01/03 05:05:02;;;;;;;;;4.00;4.00;;;;;9.53;73.07;102119.56;5055586;28;45410;-54
2023/01/03 05:07:28;;;;;;;;;4.00;4.00;;;;;9.58;72.94;102128.13;5055644;28;45475;-53
2023/01/03 05:09:54;;;;;;;;;6.75;4.00;;;;;9.57;73.07;102130.03;5071304;28;45249;-53
2023/01/03 05:12:19;;;;;;;;;5.50;5.50;;;;;9.46;72.92;102128.47;5055618;28;45254;-55
2023/01/03 05:14:45;;;;;;;;;10.50;5.50;;;;;9.39;73.34;102123.84;5055489;28;46392;-52
2023/01/03 05:17:10;;;;;;;;;9.00;6.00;;;;;9.22;74.11;102121.09;5055472;28;45272;-54
2023/01/03 05:25:48;;;;;;;;;9.75;7.00;;;;;9.30;73.29;102134.81;5054482;28;46006;-51
2023/01/03 05:27:50;;;;;;;;;6.00;6.00;;;;;9.28;74.47;102131.38;5055364;28;45324;-54
2023/01/03 05:30:15;;;;;;;;;7.00;4.00;;;;;9.33;74.13;102134.47;5055596;28;45373;-56
2023/01/03 05:32:41;;;;;;;;;6.25;6.25;;;;;9.41;73.65;102138.25;5055551;28;45374;-57
2023/01/03 05:35:06;;;;;;;;;9.50;6.75;;;;;9.46;74.07;102144.91;5070744;28;45445;-56
2023/01/03 05:37:32;;;;;;;;;12.00;7.75;;;;;9.49;73.45;102141.84;5055020;28;45462;-54
2023/01/03 05:39:57;;;;;;;;;3.50;3.00;;;;;9.50;73.17;102139.94;5055384;28;45412;-57
2023/01/03 05:42:23;;;;;;;;;8.75;3.00;;;;;9.53;73.62;102136.88;5055561;28;45472;-58
2023/01/03 05:44:48;;;;;;;;;3.50;3.50;;;;;9.52;72.60;102132.44;5070998;28;46123;-56
2023/01/03 05:47:14;;;;;;;;;4.75;4.50;;;;;9.47;73.25;102138.44;5074873;28;45500;-56
2023/01/03 05:49:39;;;;;;;;;6.50;6.00;;;;;9.38;72.43;102108.44;5075149;28;45322;-52
2023/01/03 05:52:05;;;;;;;;;7.25;6.00;;;;;9.44;72.63;102127.78;5056762;28;45690;-51
2023/01/03 05:54:31;;;;;;;;;6.75;3.00;;;;;9.51;73.45;102130.72;5056546;28;46214;-52
2023/01/03 05:56:56;;;;;;;;;6.00;5.00;;;;;9.57;72.80;102138.25;5056475;28;45306;-49
2023/01/03 05:59:22;;;;;;;;;3.25;3.00;;;;;9.58;71.96;102139.09;5075036;28;45392;-53
2023/01/03 06:01:48;;;;;;;;;6.40;6.00;;;;;9.41;73.09;102111.72;5075061;28;45892;-56
2023/01/03 06:04:13;;;;;;;;;4.75;4.75;;;;;9.60;71.76;102139.78;5074659;28;46740;-57
2023/01/03 06:06:39;;;;;;;;;7.00;7.00;;;;;9.62;72.30;102132.25;5075112;28;45591;-58
2023/01/03 06:09:04;;;;;;;;;4.75;4.50;;;;;9.36;72.89;102095.75;5074974;28;45277;-53
2023/01/03 06:11:30;;;;;;;;;7.00;6.25;;;;;9.58;72.53;102141.84;5043601;27;45596;-55
2023/01/03 06:13:55;;;;;;;;;5.50;5.50;;;;;9.55;72.18;102134.81;5071709;28;46793;-55
2023/01/03 06:19:06;;;;;;;;;8.20;7.40;;;;;9.54;72.68;102146.81;5074850;28;45408;-61
2023/01/03 06:21:31;;;;;;;;;7.60;6.00;;;;;9.53;71.81;102152.47;5039897;28;45664;-54
2023/01/03 06:23:56;;;;;;;;;2.25;2.25;;;;;9.52;72.37;102145.25;5073089;28;45479;-55
2023/01/03 06:26:22;;;;;;;;;8.75;8.75;;;;;9.50;72.34;102150.91;5074651;28;45475;-50
2023/01/03 06:28:48;;;;;;;;;6.00;6.00;;;;;9.51;72.11;102149.03;5056751;28;45373;-52
2023/01/03 06:31:14;;;;;;;;;14.75;12.75;;;;;9.47;72.92;102156.75;5074849;28;45415;-53
2023/01/03 06:33:40;;;;;;;;;6.00;6.00;;;;;9.43;72.05;102156.22;5056239;28;46159;-56
2023/01/03 06:36:07;;;;;;;;;7.75;6.75;;;;;9.44;72.89;102162.59;5074394;28;45846;-56
2023/01/03 06:38:33;;;;;;;;;8.00;6.80;;;;;9.25;72.92;102161.88;5056918;28;45257;-56
2023/01/03 06:40:59;;;;;;;;;7.50;6.50;;;;;9.33;73.14;102164.59;5056624;28;45793;-54
2023/01/03 06:43:25;;;;;;;;;7.25;6.25;;;;;9.35;73.12;102164.44;5055671;28;47885;-55
2023/01/03 06:54:04;;;;;;;;;7.20;7.20;;;;;9.33;72.71;102181.06;5054109;28;45562;-57
2023/01/03 06:56:30;;;;;;;;;8.40;7.00;;;;;9.08;73.91;102152.75;5035912;28;45394;-56
2023/01/03 06:58:56;;;;;;;;;9.25;6.50;;;;;8.66;73.75;102078.69;5054514;28;45302;-55
2023/01/03 07:01:21;;;;;;;;;3.75;3.75;;;;;9.27;73.98;102187.19;5052546;28;45365;-53
2023/01/03 07:03:46;;;;;;;;;7.75;6.75;;;;;9.27;73.48;102178.09;5035770;28;47063;-54
2023/01/03 07:06:12;;;;;;;;;8.75;6.00;;;;;9.29;73.77;102187.03;5057306;28;45793;-52
2023/01/03 07:08:38;;;;;;;;;7.50;7.25;;;;;9.27;73.38;102178.09;5039520;28;45491;-55
2023/01/03 07:11:03;;;;;;;;;11.50;7.25;;;;;9.22;73.54;102178.63;5039827;28;45499;-53
2023/01/03 07:16:14;;;;;;;;;7.20;7.00;;;;;9.27;73.83;102183.59;5066159;28;45912;-56
2023/01/03 07:18:40;;;;;;;;;6.60;6.40;;;;;9.21;74.05;102175.03;5077762;28;45345;-56
2023/01/03 07:21:06;;;;;;;;;8.50;7.25;;;;;9.28;74.18;102188.91;5076997;28;45554;-55
2023/01/03 07:23:31;;;;;;;;;7.40;7.40;;;;;9.33;73.24;102193.88;5058713;28;46478;-54
2023/01/03 07:25:57;;;;;;;;;8.25;7.75;;;;;9.29;72.88;102187.03;5059420;28;46293;-54
2023/01/03 07:28:23;;;;;;;;;7.25;7.00;;;;;9.33;73.04;102204.84;5042169;28;45367;-53
2023/01/03 07:30:48;;;;;;;;;7.00;7.00;;;;;9.33;73.32;102202.09;5077284;28;45313;-54
2023/01/03 07:33:14;;;;;;;;;8.00;8.00;;;;;9.31;72.78;102196.81;5077053;28;45408;-51
2023/01/03 07:35:40;;;;;;;;;7.00;4.00;;;;;9.34;73.20;102206.59;5041765;28;45370;-54
2023/01/03 07:38:05;;;;;;;;;9.25;8.50;;;;;9.25;73.04;102185.66;5077546;28;45350;-51
2023/01/03 07:40:31;;;;;;;;;11.25;7.75;;;;;9.42;74.25;102208.47;5077013;28;45426;-54
2023/01/03 07:45:41;;;;;;;;;10.40;6.20;;;;;9.28;73.31;102183.44;5075714;28;45459;-54
2023/01/03 07:48:07;;;;;;;;;11.25;6.00;;;;;9.21;73.74;102176.91;5077305;28;45487;-58
2023/01/03 07:50:33;;;;;;;;;9.00;8.00;;;;;9.39;73.27;102206.91;5077182;28;45423;-54
2023/01/03 07:52:58;;;;;;;;;8.00;7.50;;;;;9.46;74.01;102209.84;5076600;28;45462;-55
2023/01/03 07:55:24;;;;;;;;;11.00;6.75;;;;;9.41;73.65;102212.22;5058483;28;45458;-60
2023/01/03 07:57:49;;;;;;;;;8.00;8.00;;;;;9.46;73.07;102224.41;5076797;28;45384;-54
2023/01/03 08:00:15;;;;;;;;;9.75;9.75;;;;;9.25;73.63;102191.13;5075683;28;45354;-54
2023/01/03 08:02:40;;;;;;;;;7.75;6.75;;;;;9.47;73.09;102223.41;5076487;28;46368;-51
2023/01/03 08:05:06;;;;;;;;;6.50;4.50;;;;;9.43;73.64;102221.13;5076588;28;45364;-54
2023/01/03 08:07:32;;;;;;;;;7.60;6.00;;;;;9.47;72.44;102241.72;5076781;28;45239;-53
2023/01/03 08:15:25;;;;;;;;;8.40;5.20;;;;;9.49;73.15;102237.78;5076452;28;45392;-52
2023/01/03 08:17:51;;;;;;;;;57.00;36.50;;;;;9.48;73.39;102243.41;5076260;28;45314;-54
2023/01/03 08:20:16;;;;;;;;;74.50;46.00;;;;;9.49;72.89;102247.88;5076711;28;45396;-51
2023/01/03 08:22:42;;;;;;;;;11.25;11.25;;;;;9.52;73.19;102254.91;5076151;28;45945;-55
2023/01/03 08:25:08;;;;;;;;;11.75;9.00;;;;;9.49;73.17;102256.97;5057818;28;45410;-57
2023/01/03 08:27:33;;;;;;;;;13.60;11.60;;;;;9.50;73.01;102249.56;5076668;28;45318;-55
2023/01/03 08:29:59;;;;;;;;;80.25;44.50;;;;;9.49;73.90;102256.97;5076268;28;45321;-56
2023/01/03 08:32:24;;;;;;;;;72.50;50.75;;;;;9.49;73.69;102256.09;5053394;28;46187;-53
2023/01/03 08:34:50;;;;;;;;;53.25;37.00;;;;;9.43;73.72;102256.75;5072590;27;45257;-50
2023/01/03 08:37:15;;;;;;;;;17.00;11.25;;;;;9.46;73.70;102256.44;5075004;27;45346;-53
2023/01/03 08:39:48;;;;;;;;;13.25;11.00;;;;;9.33;73.61;102244.06;5065520;28;45337;-52
2023/01/03 08:42:15;;;;;;;;;16.60;13.40;;;;;9.47;73.61;102258.16;5058296;28;45413;-57
2023/01/03 08:44:40;;;;;;;;;31.60;24.60;;;;;9.53;73.18;102259.34;5040997;28;45399;-56
2023/01/03 08:47:07;;;;;;;;;36.00;25.50;;;;;9.56;72.77;102265.34;5076250;28;45351;-56
2023/01/03 08:49:32;;;;;;;;;75.20;49.00;;;;;9.55;73.42;102257.31;5058502;28;45410;-56
2023/01/03 08:51:58;;;;;;;;;87.75;52.50;;;;;9.47;73.82;102244.44;5057460;28;45504;-54
2023/01/03 08:54:24;;;;;;;;;32.25;21.75;;;;;9.54;72.66;102264.69;5076088;28;45483;-53
2023/01/03 08:56:49;;;;;;;;;37.50;18.25;;;;;9.58;73.40;102257.84;5075623;28;45400;-51
2023/01/03 08:59:15;;;;;;;;;33.75;19.25;;;;;9.65;72.48;102258.00;5076294;28;45244;-53
2023/01/03 09:01:40;;;;;;;;;69.75;43.50;;;;;9.58;72.92;102248.75;5074773;28;45519;-52
2023/01/03 09:04:06;;;;;;;;;46.25;34.50;;;;;9.73;72.92;102260.75;5057459;28;45368;-54
2023/01/03 09:06:32;;;;;;;;;97.25;61.25;;;;;9.72;72.53;102260.94;5075941;28;45289;-55
2023/01/03 09:09:02;;;;;;;;;28.20;22.60;;;;;9.48;72.24;102221.50;5075928;28;45429;-59
2023/01/03 09:11:27;;;;;;;;;41.80;30.20;;;;;9.67;72.71;102255.97;5075435;28;45485;-56
2023/01/03 09:13:54;;;;;;;;;42.25;33.75;;;;;9.66;72.45;102273.44;5057350;28;45526;-52
2023/01/03 09:16:20;;;;;;;;;77.80;46.60;;;;;9.66;72.12;102273.44;5075407;28;45420;-51
2023/01/03 09:18:45;;;;;;;;;81.00;50.00;;;;;9.62;72.53;102263.84;5075566;28;45565;-52
2023/01/03 09:21:11;;;;;;;;;19.00;14.75;;;;;9.63;72.47;102276.53;5075356;28;46439;-53
2023/01/03 09:23:36;;;;;;;;;77.75;51.00;;;;;9.62;72.07;102275.66;5075275;28;45454;-54
2023/01/03 09:26:02;;;;;;;;;20.50;13.75;;;;;9.57;72.73;102269.84;5075570;28;45459;-57
2023/01/03 09:28:28;;;;;;;;;32.75;23.00;;;;;9.69;72.65;102283.22;5069714;28;45341;-54
2023/01/03 09:30:53;;;;;;;;;20.75;15.50;;;;;9.49;72.34;102247.88;5073372;28;46213;-59
2023/01/03 09:33:19;;;;;;;;;15.25;9.50;;;;;9.72;72.43;102271.91;4976422;27;45443;-56
2023/01/03 09:35:44;;;;;;;;;18.50;13.25;;;;;9.74;72.86;102272.59;5045547;28;45453;-58
2023/01/03 09:38:10;;;;;;;;;15.75;12.25;;;;;9.83;71.52;102282.53;5049865;28;45675;-58
2023/01/03 09:40:38;;;;;;;;;14.00;8.75;;;;;9.74;71.58;102267.97;5019111;28;46437;-56
2023/01/03 09:43:13;;;;;;;;;7.60;6.40;;;;;9.49;71.66;102237.78;5030392;28;45559;-53
2023/01/03 09:45:49;;;;;;;;;31.60;23.40;;;;;9.68;71.76;102265.91;5029698;28;45509;-56
2023/01/03 09:48:16;;;;;;;;;20.40;15.20;;;;;9.75;72.18;102277.06;5032357;28;45454;-57
2023/01/03 09:50:42;;;;;;;;;20.40;15.80;;;;;9.72;71.73;102264.53;5032069;28;45560;-53
2023/01/03 10:05:10;;;;;;;;;84.20;55.80;;;;;9.79;72.02;102296.75;5034064;28;45362;-58
2023/01/03 10:07:46;;;;;;;;;59.40;40.00;;;;;9.76;70.86;102276.88;5032917;28;45350;-59
2023/01/03 10:10:36;;;;;;;;;61.20;36.80;;;;;9.58;72.12;102262.47;5014321;28;46040;-55
2023/01/03 10:13:10;;;;;;;;;48.60;27.00;;;;;9.68;71.48;102282.38;5022095;28;45698;-58
2023/01/03 10:16:03;;;;;;;;;28.20;17.40;;;;;9.46;72.12;102256.44;5029093;28;45449;-54
2023/01/03 10:19:06;;;;;;;;;20.40;16.00;;;;;9.57;72.29;102275.31;5029745;28;45508;-56
2023/01/03 10:22:03;;;;;;;;;37.60;24.00;;;;;9.75;71.48;102294.38;5028987;28;45429;-56
2023/01/03 10:24:39;;;;;;;;;21.60;14.80;;;;;9.78;72.13;102301.41;5044988;28;47885;-54
2023/01/03 10:27:13;;;;;;;;;22.80;16.00;;;;;9.83;71.87;102304.47;5045268;28;45497;-58
2023/01/03 10:29:39;;;;;;;;;69.60;40.60;;;;;9.82;71.23;102308.25;5029618;28;45436;-54
2023/01/03 10:32:11;;;;;;;;;31.00;22.25;;;;;9.86;71.39;102306.91;5011637;28;45674;-56
2023/01/03 10:34:37;;;;;;;;;74.60;48.00;;;;;9.87;71.48;102318.75;5037488;28;45958;-59
2023/01/03 10:37:17;;;;;;;;;11.60;10.00;;;;;9.83;71.21;102304.47;5049738;28;45414;-59
2023/01/03 10:39:43;;;;;;;;;72.40;41.20;;;;;9.74;71.25;102278.94;5034681;28;45448;-58
2023/01/03 10:42:15;;;;;;;;;45.25;27.00;;;;;9.86;71.11;102289.56;5035239;28;45417;-58
2023/01/03 10:44:40;;;;;;;;;72.60;46.20;;;;;9.90;71.42;102286.34;5062327;28;46808;-55
2023/01/03 10:47:12;;;;;;;;;40.75;24.00;;;;;9.88;70.45;102274.66;5053914;28;45698;-53
2023/01/03 10:49:38;;;;;;;;;18.60;12.00;;;;;10.04;70.52;102304.00;5072157;28;45506;-58
2023/01/03 10:52:24;;;;;;;;;14.00;8.00;;;;;10.07;70.31;102291.84;5055467;28;45867;-57
2023/01/03 10:55:01;;;;;;;;;8.00;6.20;;;;;9.87;70.77;102262.00;5073387;27;45861;-58
2023/01/03 10:57:38;;;;;;;;;82.60;57.00;;;;;10.10;71.04;102298.88;5072466;28;45550;-55
2023/01/03 11:00:22;;;;;;;;;53.60;33.40;;;;;10.11;70.46;102306.06;5052080;28;45395;-58
2023/01/03 11:02:48;;;;;;;;;23.40;11.20;;;;;9.97;70.44;102272.78;5070352;28;45755;-55
2023/01/03 11:05:26;;;;;;;;;24.25;13.75;;;;;10.13;70.51;102299.38;5073487;28;47088;-53
2023/01/03 11:07:58;;;;;;;;;24.40;16.40;;;;;10.14;70.93;102301.09;5073533;28;45784;-58
2023/01/03 11:10:28;;;;;;;;;26.20;20.40;;;;;10.12;70.52;102292.19;5054804;28;45472;-59
2023/01/03 11:12:54;;;;;;;;;16.00;9.00;;;;;10.14;70.43;102303.00;5051116;28;45562;-54
2023/01/03 11:15:34;;;;;;;;;7.50;5.50;;;;;9.70;70.58;102217.25;5066917;28;45936;-52
2023/01/03 11:18:04;;;;;;;;;8.20;8.00;;;;;10.08;70.61;102285.31;5050264;28;45663;-52
2023/01/03 11:20:52;;;;;;;;;9.00;8.00;;;;;9.81;71.08;102243.47;5071249;28;45764;-53
2023/01/03 11:23:24;;;;;;;;;8.20;6.40;;;;;9.89;71.13;102265.41;5066631;28;45821;-53
2023/01/03 11:25:49;;;;;;;;;9.60;8.20;;;;;9.83;71.21;102237.81;5069289;28;47022;-54
2023/01/03 11:28:42;;;;;;;;;7.00;7.00;;;;;10.14;71.34;102287.38;5072062;27;45887;-54
2023/01/03 11:31:32;;;;;;;;;7.20;7.20;;;;;10.24;71.10;102268.00;5072040;28;45871;-49
2023/01/03 11:34:15;;;;;;;;;5.00;5.00;;;;;10.33;70.67;102278.97;5039853;28;45474;-56
2023/01/03 11:36:55;;;;;;;;;10.40;9.60;;;;;10.50;70.11;102277.94;5061294;28;46900;-52
2023/01/03 11:39:36;;;;;;;;;6.00;6.00;;;;;10.61;68.78;102241.03;5067970;28;45545;-55
2023/01/03 11:42:21;;;;;;;;;10.00;8.60;;;;;10.71;68.93;102265.56;5071998;28;45849;-54
2023/01/03 11:44:55;;;;;;;;;5.80;5.20;;;;;10.85;68.37;102239.25;5070957;28;45524;-57
2023/01/03 11:47:44;;;;;;;;;7.20;6.80;;;;;11.12;67.74;102270.06;5069988;28;47726;-52
2023/01/03 11:50:15;;;;;;;;;8.00;7.00;;;;;11.04;67.76;102242.63;5071083;28;45824;-57
2023/01/03 11:52:53;;;;;;;;;5.00;5.00;;;;;11.28;67.02;102268.25;5071005;28;45823;-54
2023/01/03 11:55:45;;;;;;;;;7.00;7.00;;;;;11.24;67.35;102260.38;5055648;28;45354;-52
2023/01/03 11:58:58;;;;;;;;;10.40;8.00;;;;;11.18;67.59;102260.25;5015049;28;47221;-61
2023/01/03 12:01:32;;;;;;;;;9.80;5.20;;;;;11.08;67.28;102230.22;5041734;28;45593;-56
2023/01/03 12:04:35;;;;;;;;;20.20;19.60;;;;;11.21;66.91;102257.97;5052269;28;45527;-54
2023/01/03 12:07:14;;;;;;;;;3.80;3.80;;;;;10.98;67.36;102235.94;5052246;28;45589;-58
2023/01/03 12:10:23;;;;;;;;;3.60;3.00;;;;;10.95;67.36;102231.66;5052379;28;46785;-60
2023/01/03 12:13:16;;;;;;;;;8.40;6.00;;;;;11.19;67.14;102243.56;4977363;28;45540;-62
2023/01/03 12:15:49;;;;;;;;;18.20;13.80;;;;;11.07;67.12;102207.41;5065603;27;45439;-62
2023/01/03 12:18:23;;;;;;;;;66.40;41.80;;;;;11.31;66.96;102238.53;5030350;28;47339;-59
2023/01/03 12:20:55;;;;;;;;;27.40;19.40;;;;;11.24;67.31;102237.53;5071040;27;45508;-58
2023/01/03 12:23:36;;;;;;;;;52.00;34.20;;;;;11.04;67.29;102237.97;5046246;28;45547;-59
2023/01/03 12:26:04;;;;;;;;;56.40;36.40;;;;;10.98;67.91;102231.31;5071675;27;45818;-57
2023/01/03 12:29:19;;;;;;;;;60.20;40.60;;;;;10.62;67.85;102176.84;5053473;28;45546;-60
2023/01/03 12:31:48;;;;;;;;;60.00;37.80;;;;;11.03;67.85;102228.03;5038084;27;45770;-60
2023/01/03 12:34:19;;;;;;;;;22.60;15.20;;;;;10.98;68.18;102222.19;5059694;27;45816;-60
2023/01/03 12:37:08;;;;;;;;;77.40;52.80;;;;;10.89;68.35;102224.13;5051813;28;45479;-60
2023/01/03 12:39:36;;;;;;;;;47.80;34.60;;;;;10.54;68.63;102176.88;5066911;28;45570;-62
2023/01/03 12:42:20;;;;;;;;;19.00;15.40;;;;;10.72;68.73;102195.88;5070601;28;47646;-59
2023/01/03 12:44:47;;;;;;;;;9.20;9.00;;;;;10.93;68.32;102228.22;5053758;28;45528;-60